createdAt,value
2023-06-02T00:00:50.938Z,6.47
2023-06-02T00:03:18.118Z,6.10
2023-06-02T00:05:45.456Z,9.30
2023-06-02T00:08:14.004Z,7.70
2023-06-02T00:10:41.166Z,7.93
2023-06-02T00:13:08.431Z,9.80
2023-06-02T00:15:35.576Z,11.37
2023-06-02T00:18:02.829Z,7.23
2023-06-02T00:20:29.990Z,9.10
2023-06-02T00:22:57.107Z,10.00
2023-06-02T00:25:25.612Z,10.17
2023-06-02T00:27:52.715Z,11.20
2023-06-02T00:30:19.898Z,10.17
2023-06-02T00:32:47.141Z,11.23
2023-06-02T00:35:14.290Z,9.07
2023-06-02T00:37:41.412Z,10.37
2023-06-02T00:40:09.193Z,14.63
2023-06-02T00:42:37.691Z,10.93
2023-06-02T00:45:05.360Z,11.60
2023-06-02T00:47:32.531Z,10.00
2023-06-02T00:49:59.663Z,11.93
2023-06-02T00:52:26.908Z,11.83
2023-06-02T00:54:54.569Z,14.73
2023-06-02T00:57:21.670Z,10.73
2023-06-02T00:59:51.028Z,13.63
2023-06-02T01:02:18.156Z,15.73
2023-06-02T01:04:45.343Z,11.50
2023-06-02T01:07:12.703Z,11.80
2023-06-02T01:09:40.412Z,13.57
2023-06-02T01:12:07.967Z,11.60
2023-06-02T01:14:35.035Z,10.53
2023-06-02T01:17:03.528Z,15.00
2023-06-02T01:19:30.668Z,11.50
2023-06-02T01:22:01.504Z,13.83
2023-06-02T01:24:36.723Z,11.90
2023-06-02T01:27:05.685Z,17.40
2023-06-02T01:29:32.886Z,17.10
2023-06-02T01:32:00.282Z,20.10
2023-06-02T01:34:29.683Z,13.43
2023-06-02T01:36:58.566Z,18.13
2023-06-02T01:39:27.781Z,16.60
2023-06-02T01:41:56.813Z,25.97
2023-06-02T01:44:24.386Z,18.70
2023-06-02T01:46:51.601Z,16.43
2023-06-02T01:49:18.853Z,18.20
2023-06-02T01:51:46.288Z,21.30
2023-06-02T01:54:13.354Z,16.13
2023-06-02T01:56:40.476Z,16.07
2023-06-02T01:59:08.916Z,17.60
2023-06-02T02:01:36.152Z,19.80
2023-06-02T02:04:03.197Z,14.30
2023-06-02T02:06:30.810Z,20.30
2023-06-02T02:08:58.076Z,20.00
2023-06-02T02:11:25.316Z,17.37
2023-06-02T02:13:52.371Z,19.90
2023-06-02T02:16:21.027Z,21.80
2023-06-02T02:18:48.249Z,19.67
2023-06-02T02:21:15.757Z,16.33
2023-06-02T02:23:44.201Z,18.23
2023-06-02T02:26:11.321Z,18.83
2023-06-02T02:28:38.456Z,18.70
2023-06-02T02:31:05.730Z,10.93
2023-06-02T02:33:34.167Z,18.37
2023-06-02T02:36:01.481Z,15.40
2023-06-02T02:38:28.731Z,11.80
2023-06-02T02:40:55.806Z,13.20
2023-06-02T02:43:22.918Z,11.83
2023-06-02T02:45:51.330Z,14.70
2023-06-02T02:48:19.076Z,17.17
2023-06-02T02:50:47.538Z,15.50
2023-06-02T02:53:14.939Z,14.53
2023-06-02T02:55:42.616Z,14.13
2023-06-02T02:58:09.757Z,13.63
2023-06-02T03:00:36.878Z,14.60
2023-06-02T03:03:04.050Z,13.70
2023-06-02T03:05:31.192Z,13.20
2023-06-02T03:07:59.781Z,16.37
2023-06-02T03:10:26.943Z,14.00
2023-06-02T03:12:54.656Z,14.00
2023-06-02T03:15:21.850Z,14.70
2023-06-02T03:17:49.193Z,14.33
2023-06-02T03:20:16.500Z,13.50
2023-06-02T03:22:48.983Z,17.03
2023-06-02T03:25:17.807Z,14.57
2023-06-02T03:27:44.922Z,19.90
2023-06-02T03:30:12.762Z,19.87
2023-06-02T03:32:39.888Z,20.70
2023-06-02T03:35:08.787Z,20.87
2023-06-02T03:37:39.208Z,16.57
2023-06-02T03:40:07.320Z,17.60
2023-06-02T03:42:35.792Z,18.07
2023-06-02T03:45:06.127Z,15.00
2023-06-02T03:47:33.310Z,18.13
2023-06-02T03:50:01.005Z,17.20
2023-06-02T03:52:29.288Z,17.13
2023-06-02T03:54:56.381Z,14.53
2023-06-02T03:57:23.542Z,13.47
2023-06-02T03:59:52.092Z,17.87
2023-06-02T04:02:19.386Z,10.63
2023-06-02T04:04:46.553Z,16.83
2023-06-02T04:07:14.019Z,13.40
2023-06-02T04:09:41.271Z,17.90
2023-06-02T04:12:09.292Z,10.50
2023-06-02T04:14:37.450Z,16.83
2023-06-02T04:17:06.715Z,11.10
2023-06-02T04:19:34.323Z,21.67
2023-06-02T04:22:02.950Z,9.53
2023-06-02T04:24:30.256Z,23.27
2023-06-02T04:26:57.912Z,12.87
2023-06-02T04:29:25.249Z,14.07
2023-06-02T04:31:52.808Z,21.73
2023-06-02T04:34:25.826Z,11.60
2023-06-02T04:36:54.383Z,13.90
2023-06-02T04:39:21.756Z,15.57
2023-06-02T04:41:51.157Z,22.20
2023-06-02T04:44:19.987Z,19.13
2023-06-02T04:46:48.559Z,21.50
2023-06-02T04:49:15.871Z,20.60
2023-06-02T04:51:44.690Z,15.90
2023-06-02T04:54:11.958Z,14.83
2023-06-02T04:56:40.523Z,20.13
2023-06-02T04:59:11.797Z,24.30
2023-06-02T05:01:39.352Z,15.13
2023-06-02T05:04:06.703Z,17.33
2023-06-02T05:06:33.960Z,16.90
2023-06-02T05:09:02.730Z,16.07
2023-06-02T05:11:30.377Z,26.83
2023-06-02T05:13:57.532Z,16.20
2023-06-02T05:16:25.832Z,17.77
2023-06-02T05:18:53.090Z,20.17
2023-06-02T05:21:20.750Z,20.83
2023-06-02T05:23:48.680Z,16.80
2023-06-02T05:26:17.187Z,29.17
2023-06-02T05:28:44.349Z,25.03
2023-06-02T05:31:11.558Z,18.40
2023-06-02T05:33:38.956Z,19.73
2023-06-02T05:36:06.369Z,22.57
2023-06-02T05:38:33.934Z,13.27
2023-06-02T05:41:01.213Z,20.80
2023-06-02T05:43:29.904Z,26.50
2023-06-02T05:45:57.448Z,19.13
2023-06-02T05:48:25.331Z,17.30
2023-06-02T05:50:54.853Z,20.00
2023-06-02T05:53:22.994Z,24.13
2023-06-02T05:55:50.134Z,21.27
2023-06-02T05:58:19.545Z,19.67
2023-06-02T06:00:49.320Z,24.20
2023-06-02T06:03:16.669Z,19.23
2023-06-02T06:05:45.476Z,21.87
2023-06-02T06:08:12.594Z,21.37
2023-06-02T06:10:40.852Z,18.93
2023-06-02T06:13:08.086Z,18.57
2023-06-02T06:15:35.585Z,17.97
2023-06-02T06:18:04.158Z,16.60
2023-06-02T06:20:31.350Z,20.50
2023-06-02T06:22:59.342Z,20.70
2023-06-02T06:25:28.352Z,15.97
2023-06-02T15:16:30.354Z,10.18
2023-06-02T15:18:58.767Z,9.20
2023-06-02T15:21:26.279Z,10.43
2023-06-02T15:23:53.442Z,7.25
2023-06-02T15:26:20.489Z,10.57
2023-06-02T15:28:47.573Z,14.10
2023-06-02T15:31:14.810Z,7.57
2023-06-02T15:33:43.277Z,8.05
2023-06-02T15:36:10.352Z,8.63
2023-06-02T15:38:37.457Z,7.68
2023-06-02T15:41:04.593Z,6.57
2023-06-02T15:43:31.710Z,5.95
2023-06-02T15:45:58.948Z,6.03
2023-06-02T15:48:26.107Z,5.22
2023-06-02T15:50:54.541Z,9.70
2023-06-02T15:56:13.029Z,12.65
2023-06-02T15:58:40.105Z,13.18
2023-06-02T16:01:07.156Z,7.93
2023-06-02T16:03:34.236Z,10.48
2023-06-02T16:06:02.871Z,5.97
2023-06-02T16:08:30.251Z,14.95
2023-06-02T16:10:57.411Z,12.30
2023-06-02T16:13:24.741Z,10.07
2023-06-02T16:15:52.019Z,11.70
2023-06-02T16:18:19.104Z,6.55
2023-06-02T16:20:46.214Z,8.43
2023-06-02T16:23:14.702Z,7.78
2023-06-02T16:25:41.910Z,15.88
2023-06-02T16:28:09.109Z,6.07
2023-06-02T16:30:36.305Z,18.20
2023-06-02T16:33:03.460Z,8.02
2023-06-02T16:35:30.639Z,8.48
2023-06-02T16:37:57.736Z,9.18
2023-06-02T16:40:26.310Z,7.63
2023-06-02T16:42:53.420Z,9.43
2023-06-02T16:45:20.532Z,6.45
2023-06-02T16:47:47.724Z,8.85
2023-06-02T16:50:14.860Z,7.13
2023-06-02T16:52:41.985Z,10.63
2023-06-02T16:55:09.501Z,5.30
2023-06-02T16:57:37.979Z,5.55
2023-06-02T17:00:07.179Z,7.68
2023-06-02T17:02:36.351Z,5.80
2023-06-02T17:05:03.583Z,7.47
2023-06-02T17:07:30.667Z,6.13
2023-06-02T17:09:57.839Z,7.22
2023-06-02T17:12:24.912Z,6.63
2023-06-02T17:14:53.383Z,6.15
2023-06-02T17:17:21.811Z,8.15
2023-06-02T17:19:49.580Z,8.13
2023-06-02T17:22:16.695Z,6.85
2023-06-02T17:24:43.806Z,7.07
2023-06-02T17:27:11.440Z,6.07
2023-06-02T17:29:38.581Z,9.80
2023-06-02T17:32:07.780Z,6.60
2023-06-02T17:34:34.880Z,6.18
2023-06-02T17:37:02.036Z,4.45
2023-06-02T17:39:29.171Z,5.93
2023-06-02T17:41:56.263Z,6.28
2023-06-02T17:44:23.330Z,9.02
2023-06-02T17:46:50.509Z,6.97
2023-06-02T17:49:19.088Z,4.13
2023-06-02T17:51:46.896Z,3.35
2023-06-02T17:54:14.034Z,5.05
2023-06-02T17:56:41.158Z,3.72
2023-06-02T17:59:08.307Z,7.95
2023-06-02T18:01:35.545Z,5.40
2023-06-02T18:04:02.889Z,7.13
2023-06-02T18:06:31.320Z,6.03
2023-06-02T18:08:58.405Z,8.27
2023-06-02T18:11:26.634Z,6.43
2023-06-02T18:13:58.522Z,9.10
2023-06-02T18:16:25.715Z,6.33
2023-06-02T18:18:52.912Z,8.53
2023-06-02T18:21:20.718Z,7.80
2023-06-02T18:23:49.167Z,7.37
2023-06-02T18:26:16.279Z,7.93
2023-06-02T18:28:43.366Z,5.30
2023-06-02T18:31:10.463Z,7.23
2023-06-02T18:33:37.574Z,4.83
2023-06-02T18:36:04.699Z,8.17
2023-06-02T18:38:31.836Z,5.17
2023-06-02T18:41:00.278Z,10.33
2023-06-02T18:43:27.356Z,5.93
2023-06-02T18:45:54.410Z,4.80
2023-06-02T18:48:21.518Z,5.10
2023-06-02T18:50:48.624Z,4.10
2023-06-02T18:53:15.709Z,7.57
2023-06-02T18:55:42.780Z,10.43
2023-06-02T18:58:11.233Z,7.70
2023-06-02T19:00:38.324Z,8.20
2023-06-02T19:03:05.453Z,15.40
2023-06-02T19:05:32.670Z,5.23
2023-06-02T19:07:59.812Z,6.60
2023-06-02T19:10:26.878Z,8.83
2023-06-02T19:12:53.983Z,6.60
2023-06-02T19:15:22.663Z,7.40
2023-06-02T19:17:49.850Z,6.30
2023-06-02T19:20:17.153Z,11.13
2023-06-02T19:22:44.302Z,5.50
2023-06-02T19:25:11.515Z,15.50
2023-06-02T19:27:38.683Z,6.23
2023-06-02T19:30:06.386Z,9.40
2023-06-02T19:32:34.903Z,6.63
2023-06-02T19:35:02.060Z,4.53
2023-06-02T19:37:29.205Z,3.97
2023-06-02T19:39:56.301Z,3.90
2023-06-02T19:42:23.383Z,5.83
2023-06-02T19:44:50.446Z,5.67
2023-06-02T19:47:17.489Z,8.27
2023-06-02T19:49:45.916Z,6.73
2023-06-02T19:52:13.144Z,4.00
2023-06-02T19:54:40.238Z,3.97
2023-06-02T19:57:07.475Z,8.53
2023-06-02T19:59:34.565Z,4.70
2023-06-02T20:02:01.796Z,7.60
2023-06-02T20:04:28.940Z,14.33
2023-06-02T20:06:57.419Z,7.07
2023-06-02T20:09:24.546Z,5.07
2023-06-02T20:11:51.664Z,4.57
2023-06-02T20:14:18.734Z,10.43
2023-06-02T20:16:45.932Z,6.10
2023-06-02T20:19:13.126Z,7.03
2023-06-02T20:21:40.305Z,6.43
2023-06-02T20:24:08.968Z,5.73
2023-06-02T20:26:36.224Z,7.43
2023-06-02T20:29:03.362Z,5.90
2023-06-02T20:31:30.692Z,5.70
2023-06-02T20:33:57.844Z,4.37
2023-06-02T20:36:24.966Z,9.03
2023-06-02T20:38:52.086Z,6.40
2023-06-02T20:41:20.608Z,4.83
2023-06-02T20:43:47.721Z,5.20
2023-06-02T20:46:14.936Z,5.97
2023-06-02T20:48:42.120Z,7.47
2023-06-02T20:51:09.203Z,6.03
2023-06-02T20:53:36.341Z,7.20
2023-06-02T20:56:03.507Z,9.20
2023-06-02T20:58:31.984Z,3.27
2023-06-02T21:00:59.098Z,6.00
2023-06-02T21:03:26.294Z,6.47
2023-06-02T21:05:53.511Z,4.37
2023-06-02T21:08:20.651Z,10.20
2023-06-02T21:10:47.750Z,5.10
2023-06-02T21:13:14.836Z,7.07
2023-06-02T21:15:43.349Z,11.03
2023-06-02T21:18:10.487Z,19.63
2023-06-02T21:20:38.054Z,7.20
2023-06-02T21:23:05.159Z,8.53
2023-06-02T21:25:32.267Z,6.70
2023-06-02T21:27:59.355Z,7.20
2023-06-02T21:30:26.450Z,7.30
2023-06-02T21:32:54.942Z,5.80
2023-06-02T21:35:22.078Z,11.33
2023-06-02T21:37:49.222Z,7.93
2023-06-02T21:40:16.478Z,10.80
2023-06-02T21:42:43.586Z,7.30
2023-06-02T21:45:11.292Z,6.23
2023-06-02T21:47:38.535Z,6.53
2023-06-02T21:50:07.661Z,14.13
2023-06-02T21:52:34.740Z,9.67
2023-06-02T21:55:01.994Z,7.30
2023-06-02T21:57:29.052Z,7.50
2023-06-02T21:59:56.163Z,6.20
2023-06-02T22:02:23.475Z,6.47
2023-06-02T22:04:50.715Z,8.73
2023-06-02T22:07:19.134Z,8.57
2023-06-02T22:09:46.264Z,7.33
2023-06-02T22:12:13.381Z,6.43
2023-06-02T22:14:40.473Z,7.53
2023-06-02T22:17:07.809Z,10.80
2023-06-02T22:19:34.880Z,6.57
2023-06-02T22:22:01.973Z,9.03
2023-06-02T22:24:30.493Z,9.47
2023-06-02T22:26:57.701Z,9.70
2023-06-02T22:29:24.934Z,12.43
2023-06-02T22:31:52.241Z,8.70
2023-06-02T22:34:19.355Z,6.53
2023-06-02T22:36:46.526Z,14.00
2023-06-02T22:39:13.651Z,9.87
2023-06-02T22:41:42.119Z,11.30
2023-06-02T22:44:09.185Z,10.50
2023-06-02T22:46:36.302Z,10.33
2023-06-02T22:49:03.388Z,8.40
2023-06-02T22:51:30.455Z,10.43
2023-06-02T22:54:00.385Z,5.97
2023-06-02T22:56:27.451Z,20.93
2023-06-02T22:58:58.610Z,13.20
2023-06-02T23:01:25.794Z,10.63
2023-06-02T23:03:52.993Z,11.87
2023-06-02T23:06:20.175Z,9.73
2023-06-02T23:08:47.267Z,11.13
2023-06-02T23:11:14.347Z,11.80
2023-06-02T23:13:41.441Z,6.53
2023-06-02T23:16:09.984Z,7.70
2023-06-02T23:18:37.183Z,9.40
2023-06-02T23:21:04.552Z,6.00
2023-06-02T23:23:31.792Z,8.20
2023-06-02T23:25:58.963Z,16.17
2023-06-02T23:28:26.241Z,10.33
2023-06-02T23:30:53.361Z,14.57
2023-06-02T23:33:21.790Z,9.93
2023-06-02T23:35:48.933Z,7.53
2023-06-02T23:38:16.017Z,6.37
2023-06-02T23:40:43.091Z,9.67
2023-06-02T23:43:10.168Z,11.80
2023-06-02T23:45:37.261Z,9.50
2023-06-02T23:48:04.601Z,10.17
2023-06-02T23:50:33.101Z,9.47
2023-06-02T23:53:00.287Z,7.17
2023-06-02T23:55:27.427Z,8.13
2023-06-02T23:57:54.502Z,8.13
